Nearby METAR Reports

 

KNTU - NAS Oceana, Virginia Beach, Virginia, USA
Distance from station: N 3.2mi, 5.1km
Updated: Fri, 10-Jul-2020 8:56pm EDT
Few Clouds
Few Clouds
 Wind from S
Wind: S 7 mph , 11 km/h
Temperature: 86°F , 30°C
Heat Index: 93°F , 34°C
Dew Point: 73°F , 23°C
Humidity: 66%
Barometer: 29.80 inHg , 1009.1 hPa
Clouds: Few Clouds
Visibility: 10 miles , 16 km
Cloud details: Few Clouds 4500 ft
2020/07/11 00:56 KNTU 110056Z 19006KT 10SM FEW045 30/23 A2980 RMK AO2 SLP092 T03000233
KNFE - Fentress NALF, Virginia Beach Virginia, USA
Distance from station: SW 7.6mi, 12.2km
Updated: Fri, 10-Jul-2020 8:56pm EDT
Clear
Clear
 Wind from S
Wind: S 6 mph , 9 km/h
Temperature: 81°F , 27°C
Heat Index: 86°F , 30°C
Dew Point: 73°F , 23°C
Humidity: 79%
Barometer: 29.81 inHg , 1009.5 hPa
Clouds: Clear
Visibility: 10 miles , 16 km
2020/07/11 00:56 KNFE 110056Z AUTO 18005KT 10SM CLR 27/23 A2981 RMK AO2 SLP096 T02720228
 
KORF - Norfolk International, Norfolk, Virginia, USA
Distance from station: NW 12.2mi, 19.6km
Updated: Fri, 10-Jul-2020 8:51pm EDT
Clear
Clear
 Wind from SSW
Wind: SSW 10 mph , 17 km/h
Temperature: 88°F , 31°C
Heat Index: 96°F , 36°C
Dew Point: 73°F , 23°C
Humidity: 62%
Barometer: 29.80 inHg , 1009.1 hPa
Clouds: Clear
Visibility: 10 miles , 16 km
2020/07/11 00:51 KORF 110051Z 20009KT 10SM CLR 31/23 A2980 RMK AO2 SLP089 T03060228
KCPK - Cheasapeak Municipal, Cheasapeak, Virginia, USA
Distance from station: SW 17.2mi, 27.7km
Updated: Fri, 10-Jul-2020 8:55pm EDT
Clear
Clear
 Wind from S
Wind: S 5 mph , 7 km/h
Temperature: 81°F , 27°C
Heat Index: 86°F , 30°C
Dew Point: 73°F , 23°C
Humidity: 79%
Barometer: 29.81 inHg , 1009.5 hPa
Clouds: Clear
Visibility: 10 miles , 16 km
2020/07/11 00:55 KCPK 110055Z AUTO 18004KT 10SM CLR 27/23 A2981 RMK AO2 T02660225
 
KNGU - NAS Norfolk, Norfolk, Virginia, USA
Distance from station: NW 17.7mi, 28.5km
Updated: Fri, 10-Jul-2020 8:59pm EDT
Partly cloudy
Partly cloudy
 Wind from SSW
Wind: SSW 7 mph , 11 km/h
Temperature: 86°F , 30°C
Heat Index: 92°F , 33°C
Dew Point: 72°F , 22°C
Humidity: 62%
Barometer: 29.81 inHg , 1009.5 hPa
Clouds: Partly cloudy
Visibility: 10 miles , 16 km
Cloud details: Few Clouds 5000 ft
Partly cloudy 28000 ft
2020/07/11 00:59 KNGU 110059Z 21006KT 10SM FEW050 SCT280 30/22 A2981 RMK AO2 SLP095 T03000222